sensor_id;sensor_type;location;lat;lon;timestamp;temperature;humidity
39427;DHT22;25938;48.470;1.486;2022-08-27T00:00:09;24.80;52.20
39427;DHT22;25938;48.470;1.486;2022-08-27T00:02:38;24.80;52.30
39427;DHT22;25938;48.470;1.486;2022-08-27T00:05:04;24.80;52.30
39427;DHT22;25938;48.470;1.486;2022-08-27T00:07:30;24.80;52.40
39427;DHT22;25938;48.470;1.486;2022-08-27T00:09:55;24.70;52.40
39427;DHT22;25938;48.470;1.486;2022-08-27T00:12:21;24.70;52.50
39427;DHT22;25938;48.470;1.486;2022-08-27T00:14:47;24.70;52.60
39427;DHT22;25938;48.470;1.486;2022-08-27T00:17:12;24.70;52.70
39427;DHT22;25938;48.470;1.486;2022-08-27T00:19:39;24.70;52.70
39427;DHT22;25938;48.470;1.486;2022-08-27T00:22:06;24.70;52.80
39427;DHT22;25938;48.470;1.486;2022-08-27T00:24:34;24.70;52.90
39427;DHT22;25938;48.470;1.486;2022-08-27T00:27:00;24.70;53.00
39427;DHT22;25938;48.470;1.486;2022-08-27T00:29:26;24.70;53.00
39427;DHT22;25938;48.470;1.486;2022-08-27T00:31:53;24.70;53.10
39427;DHT22;25938;48.470;1.486;2022-08-27T00:34:20;24.70;53.20
39427;DHT22;25938;48.470;1.486;2022-08-27T00:36:46;24.70;53.20
39427;DHT22;25938;48.470;1.486;2022-08-27T00:39:12;24.70;53.30
39427;DHT22;25938;48.470;1.486;2022-08-27T00:41:39;24.70;53.30
39427;DHT22;25938;48.470;1.486;2022-08-27T00:44:05;24.70;53.40
39427;DHT22;25938;48.470;1.486;2022-08-27T00:46:53;24.70;53.50
39427;DHT22;25938;48.470;1.486;2022-08-27T00:49:23;24.60;53.40
39427;DHT22;25938;48.470;1.486;2022-08-27T00:52:25;24.70;53.60
39427;DHT22;25938;48.470;1.486;2022-08-27T00:54:56;24.60;53.60
39427;DHT22;25938;48.470;1.486;2022-08-27T00:57:23;24.60;53.70
39427;DHT22;25938;48.470;1.486;2022-08-27T00:59:49;24.60;53.80
39427;DHT22;25938;48.470;1.486;2022-08-27T01:02:15;24.60;53.80
39427;DHT22;25938;48.470;1.486;2022-08-27T01:07:16;24.60;53.90
39427;DHT22;25938;48.470;1.486;2022-08-27T01:09:45;24.60;54.10
39427;DHT22;25938;48.470;1.486;2022-08-27T01:12:12;24.60;54.00
39427;DHT22;25938;48.470;1.486;2022-08-27T01:14:40;24.60;54.10
39427;DHT22;25938;48.470;1.486;2022-08-27T01:17:08;24.60;54.20
39427;DHT22;25938;48.470;1.486;2022-08-27T01:19:40;24.60;54.20
39427;DHT22;25938;48.470;1.486;2022-08-27T01:24:44;24.60;54.30
39427;DHT22;25938;48.470;1.486;2022-08-27T01:27:14;24.60;54.40
39427;DHT22;25938;48.470;1.486;2022-08-27T01:29:41;24.60;54.50
39427;DHT22;25938;48.470;1.486;2022-08-27T01:32:20;24.50;54.50
39427;DHT22;25938;48.470;1.486;2022-08-27T01:34:47;24.50;54.50
39427;DHT22;25938;48.470;1.486;2022-08-27T01:37:14;24.50;54.60
39427;DHT22;25938;48.470;1.486;2022-08-27T01:39:41;24.50;54.70
39427;DHT22;25938;48.470;1.486;2022-08-27T01:42:19;24.50;54.70
39427;DHT22;25938;48.470;1.486;2022-08-27T01:44:50;24.50;54.70
39427;DHT22;25938;48.470;1.486;2022-08-27T01:47:18;24.50;54.80
39427;DHT22;25938;48.470;1.486;2022-08-27T01:49:44;24.50;54.80
39427;DHT22;25938;48.470;1.486;2022-08-27T01:52:10;24.50;54.90
39427;DHT22;25938;48.470;1.486;2022-08-27T01:54:37;24.50;54.90
39427;DHT22;25938;48.470;1.486;2022-08-27T01:57:03;24.50;55.00
39427;DHT22;25938;48.470;1.486;2022-08-27T01:59:29;24.50;55.00
39427;DHT22;25938;48.470;1.486;2022-08-27T02:01:55;24.50;55.00
39427;DHT22;25938;48.470;1.486;2022-08-27T02:04:21;24.40;54.90
39427;DHT22;25938;48.470;1.486;2022-08-27T02:06:47;24.50;55.00
39427;DHT22;25938;48.470;1.486;2022-08-27T02:09:13;24.50;55.00
39427;DHT22;25938;48.470;1.486;2022-08-27T02:11:38;24.40;55.00
39427;DHT22;25938;48.470;1.486;2022-08-27T02:14:04;24.40;55.00
39427;DHT22;25938;48.470;1.486;2022-08-27T02:16:30;24.50;55.10
39427;DHT22;25938;48.470;1.486;2022-08-27T02:18:57;24.50;55.10
39427;DHT22;25938;48.470;1.486;2022-08-27T02:21:23;24.40;55.00
39427;DHT22;25938;48.470;1.486;2022-08-27T02:23:48;24.40;55.10
39427;DHT22;25938;48.470;1.486;2022-08-27T02:26:14;24.40;55.00
39427;DHT22;25938;48.470;1.486;2022-08-27T02:28:40;24.40;55.10
39427;DHT22;25938;48.470;1.486;2022-08-27T02:31:05;24.40;55.10
39427;DHT22;25938;48.470;1.486;2022-08-27T02:33:32;24.40;55.10
39427;DHT22;25938;48.470;1.486;2022-08-27T02:35:58;24.40;55.10
39427;DHT22;25938;48.470;1.486;2022-08-27T02:38:24;24.40;55.10
39427;DHT22;25938;48.470;1.486;2022-08-27T02:40:50;24.40;55.10
39427;DHT22;25938;48.470;1.486;2022-08-27T02:43:16;24.40;55.20
39427;DHT22;25938;48.470;1.486;2022-08-27T02:45:42;24.40;55.20
39427;DHT22;25938;48.470;1.486;2022-08-27T02:48:07;24.30;55.20
39427;DHT22;25938;48.470;1.486;2022-08-27T02:50:34;24.40;55.30
39427;DHT22;25938;48.470;1.486;2022-08-27T02:53:00;24.30;55.20
39427;DHT22;25938;48.470;1.486;2022-08-27T02:55:27;24.30;55.20
39427;DHT22;25938;48.470;1.486;2022-08-27T02:57:53;24.40;55.90
39427;DHT22;25938;48.470;1.486;2022-08-27T03:00:20;24.30;55.20
39427;DHT22;25938;48.470;1.486;2022-08-27T03:02:46;24.30;55.30
39427;DHT22;25938;48.470;1.486;2022-08-27T03:05:13;24.30;55.30
39427;DHT22;25938;48.470;1.486;2022-08-27T03:07:39;24.30;55.20
39427;DHT22;25938;48.470;1.486;2022-08-27T03:10:06;24.30;55.30
39427;DHT22;25938;48.470;1.486;2022-08-27T03:12:32;24.30;55.30
39427;DHT22;25938;48.470;1.486;2022-08-27T03:15:01;24.30;55.30
39427;DHT22;25938;48.470;1.486;2022-08-27T03:17:27;24.30;55.40
39427;DHT22;25938;48.470;1.486;2022-08-27T03:20:11;24.30;55.30
39427;DHT22;25938;48.470;1.486;2022-08-27T03:22:37;24.20;55.30
39427;DHT22;25938;48.470;1.486;2022-08-27T03:25:05;24.20;55.30
39427;DHT22;25938;48.470;1.486;2022-08-27T03:27:31;24.20;55.40
39427;DHT22;25938;48.470;1.486;2022-08-27T03:29:57;24.20;55.40
39427;DHT22;25938;48.470;1.486;2022-08-27T03:32:22;24.20;55.40
39427;DHT22;25938;48.470;1.486;2022-08-27T03:34:48;24.20;55.40
39427;DHT22;25938;48.470;1.486;2022-08-27T03:37:14;24.20;55.40
39427;DHT22;25938;48.470;1.486;2022-08-27T03:39:40;24.20;55.40
39427;DHT22;25938;48.470;1.486;2022-08-27T03:42:05;24.20;55.40
39427;DHT22;25938;48.470;1.486;2022-08-27T03:44:31;24.20;55.40
39427;DHT22;25938;48.470;1.486;2022-08-27T03:46:57;24.20;55.40
39427;DHT22;25938;48.470;1.486;2022-08-27T03:49:24;24.20;55.40
39427;DHT22;25938;48.470;1.486;2022-08-27T03:51:51;24.20;55.40
39427;DHT22;25938;48.470;1.486;2022-08-27T03:54:17;24.20;55.40
39427;DHT22;25938;48.470;1.486;2022-08-27T03:56:43;24.10;55.40
39427;DHT22;25938;48.470;1.486;2022-08-27T03:59:09;24.20;55.40
39427;DHT22;25938;48.470;1.486;2022-08-27T04:01:35;24.20;55.40
39427;DHT22;25938;48.470;1.486;2022-08-27T04:04:00;24.20;55.40
39427;DHT22;25938;48.470;1.486;2022-08-27T04:06:26;24.20;55.50
39427;DHT22;25938;48.470;1.486;2022-08-27T04:08:52;24.10;55.40
39427;DHT22;25938;48.470;1.486;2022-08-27T04:11:18;24.10;55.50
39427;DHT22;25938;48.470;1.486;2022-08-27T04:13:43;24.10;55.50
39427;DHT22;25938;48.470;1.486;2022-08-27T04:16:09;24.10;55.50
39427;DHT22;25938;48.470;1.486;2022-08-27T04:18:35;24.10;55.50
39427;DHT22;25938;48.470;1.486;2022-08-27T04:21:07;24.10;55.60
39427;DHT22;25938;48.470;1.486;2022-08-27T04:23:33;24.10;55.40
39427;DHT22;25938;48.470;1.486;2022-08-27T04:25:59;24.10;55.60
39427;DHT22;25938;48.470;1.486;2022-08-27T04:28:28;24.10;55.60
39427;DHT22;25938;48.470;1.486;2022-08-27T04:30:54;24.10;55.70
39427;DHT22;25938;48.470;1.486;2022-08-27T04:33:19;24.10;55.80
39427;DHT22;25938;48.470;1.486;2022-08-27T04:35:45;24.10;55.80
39427;DHT22;25938;48.470;1.486;2022-08-27T04:38:11;24.00;55.80
39427;DHT22;25938;48.470;1.486;2022-08-27T04:40:36;24.00;55.80
39427;DHT22;25938;48.470;1.486;2022-08-27T04:43:22;24.00;55.90
39427;DHT22;25938;48.470;1.486;2022-08-27T04:45:48;24.00;55.90
39427;DHT22;25938;48.470;1.486;2022-08-27T04:48:16;24.00;55.90
39427;DHT22;25938;48.470;1.486;2022-08-27T04:50:45;24.00;55.90
39427;DHT22;25938;48.470;1.486;2022-08-27T04:53:14;24.00;55.90
39427;DHT22;25938;48.470;1.486;2022-08-27T04:55:44;24.00;55.90
39427;DHT22;25938;48.470;1.486;2022-08-27T04:58:11;24.00;55.90
39427;DHT22;25938;48.470;1.486;2022-08-27T05:00:44;24.00;55.90
39427;DHT22;25938;48.470;1.486;2022-08-27T05:03:10;24.00;55.80
39427;DHT22;25938;48.470;1.486;2022-08-27T05:05:36;24.00;55.90
39427;DHT22;25938;48.470;1.486;2022-08-27T05:08:02;24.00;55.90
39427;DHT22;25938;48.470;1.486;2022-08-27T05:10:28;24.00;55.90
39427;DHT22;25938;48.470;1.486;2022-08-27T05:12:54;23.90;55.80
39427;DHT22;25938;48.470;1.486;2022-08-27T05:15:19;23.90;55.80
39427;DHT22;25938;48.470;1.486;2022-08-27T05:17:45;24.00;55.90
39427;DHT22;25938;48.470;1.486;2022-08-27T05:20:11;23.90;55.90
39427;DHT22;25938;48.470;1.486;2022-08-27T05:22:37;23.90;55.90
39427;DHT22;25938;48.470;1.486;2022-08-27T05:25:04;23.90;55.90
39427;DHT22;25938;48.470;1.486;2022-08-27T05:27:30;23.90;55.90
39427;DHT22;25938;48.470;1.486;2022-08-27T05:29:56;23.90;55.90
39427;DHT22;25938;48.470;1.486;2022-08-27T05:32:22;23.90;55.90
39427;DHT22;25938;48.470;1.486;2022-08-27T05:34:48;23.90;55.90
39427;DHT22;25938;48.470;1.486;2022-08-27T05:37:13;23.90;55.90
39427;DHT22;25938;48.470;1.486;2022-08-27T05:39:39;23.90;55.90
39427;DHT22;25938;48.470;1.486;2022-08-27T05:42:05;23.90;56.00
39427;DHT22;25938;48.470;1.486;2022-08-27T05:44:31;23.90;56.00
39427;DHT22;25938;48.470;1.486;2022-08-27T05:46:57;23.90;56.00
39427;DHT22;25938;48.470;1.486;2022-08-27T05:49:22;23.80;56.00
39427;DHT22;25938;48.470;1.486;2022-08-27T05:51:48;23.80;56.00
39427;DHT22;25938;48.470;1.486;2022-08-27T05:54:13;23.80;56.00
39427;DHT22;25938;48.470;1.486;2022-08-27T05:56:44;23.80;56.10
39427;DHT22;25938;48.470;1.486;2022-08-27T05:59:10;23.80;56.10
39427;DHT22;25938;48.470;1.486;2022-08-27T06:01:55;23.80;56.20
39427;DHT22;25938;48.470;1.486;2022-08-27T06:04:22;23.80;56.20
39427;DHT22;25938;48.470;1.486;2022-08-27T06:06:49;23.80;56.20
39427;DHT22;25938;48.470;1.486;2022-08-27T06:09:18;23.80;56.30
39427;DHT22;25938;48.470;1.486;2022-08-27T06:11:44;23.80;56.30
39427;DHT22;25938;48.470;1.486;2022-08-27T06:14:10;23.80;56.40
39427;DHT22;25938;48.470;1.486;2022-08-27T06:16:37;23.80;56.40
39427;DHT22;25938;48.470;1.486;2022-08-27T06:19:04;23.80;56.40
39427;DHT22;25938;48.470;1.486;2022-08-27T06:21:30;23.80;56.50
39427;DHT22;25938;48.470;1.486;2022-08-27T06:23:56;23.80;56.50
39427;DHT22;25938;48.470;1.486;2022-08-27T06:26:24;23.80;56.60
39427;DHT22;25938;48.470;1.486;2022-08-27T06:28:51;23.70;56.60
39427;DHT22;25938;48.470;1.486;2022-08-27T06:31:20;23.80;56.70
39427;DHT22;25938;48.470;1.486;2022-08-27T06:33:47;23.80;56.80
39427;DHT22;25938;48.470;1.486;2022-08-27T06:36:18;23.80;56.80
39427;DHT22;25938;48.470;1.486;2022-08-27T06:38:46;23.80;56.80
39427;DHT22;25938;48.470;1.486;2022-08-27T06:41:13;23.80;56.90
39427;DHT22;25938;48.470;1.486;2022-08-27T06:43:40;23.80;56.90
39427;DHT22;25938;48.470;1.486;2022-08-27T06:46:10;23.80;57.00
39427;DHT22;25938;48.470;1.486;2022-08-27T06:48:37;23.80;57.10
39427;DHT22;25938;48.470;1.486;2022-08-27T06:51:07;23.80;57.10
39427;DHT22;25938;48.470;1.486;2022-08-27T06:53:34;23.80;57.20
39427;DHT22;25938;48.470;1.486;2022-08-27T06:56:00;23.80;57.30
39427;DHT22;25938;48.470;1.486;2022-08-27T06:58:26;23.80;57.40
39427;DHT22;25938;48.470;1.486;2022-08-27T07:00:51;23.80;57.50
39427;DHT22;25938;48.470;1.486;2022-08-27T07:03:20;23.80;57.50
39427;DHT22;25938;48.470;1.486;2022-08-27T07:05:46;23.80;57.60
39427;DHT22;25938;48.470;1.486;2022-08-27T07:08:11;23.80;57.60
39427;DHT22;25938;48.470;1.486;2022-08-27T07:10:37;23.80;57.70
39427;DHT22;25938;48.470;1.486;2022-08-27T07:13:04;23.80;57.70
39427;DHT22;25938;48.470;1.486;2022-08-27T07:15:30;23.80;57.80
39427;DHT22;25938;48.470;1.486;2022-08-27T07:17:56;23.80;57.90
39427;DHT22;25938;48.470;1.486;2022-08-27T07:20:22;23.80;57.90
39427;DHT22;25938;48.470;1.486;2022-08-27T07:22:47;23.80;57.90
39427;DHT22;25938;48.470;1.486;2022-08-27T07:25:16;23.80;57.90
39427;DHT22;25938;48.470;1.486;2022-08-27T07:27:45;23.80;57.90
39427;DHT22;25938;48.470;1.486;2022-08-27T07:30:12;23.80;57.90
39427;DHT22;25938;48.470;1.486;2022-08-27T07:32:40;23.80;58.00
39427;DHT22;25938;48.470;1.486;2022-08-27T07:35:06;23.80;58.00
39427;DHT22;25938;48.470;1.486;2022-08-27T07:37:35;23.80;58.10
39427;DHT22;25938;48.470;1.486;2022-08-27T07:40:07;23.80;58.00
39427;DHT22;25938;48.470;1.486;2022-08-27T07:42:33;23.80;58.10
39427;DHT22;25938;48.470;1.486;2022-08-27T07:45:17;23.70;58.20
39427;DHT22;25938;48.470;1.486;2022-08-27T07:47:43;23.70;58.30
39427;DHT22;25938;48.470;1.486;2022-08-27T07:50:09;23.70;58.40
39427;DHT22;25938;48.470;1.486;2022-08-27T07:52:34;23.70;58.50
39427;DHT22;25938;48.470;1.486;2022-08-27T07:55:00;23.70;58.50
39427;DHT22;25938;48.470;1.486;2022-08-27T07:57:26;23.70;58.50
39427;DHT22;25938;48.470;1.486;2022-08-27T07:59:52;23.70;58.40
39427;DHT22;25938;48.470;1.486;2022-08-27T08:02:18;23.80;58.40
39427;DHT22;25938;48.470;1.486;2022-08-27T08:04:44;23.80;58.40
39427;DHT22;25938;48.470;1.486;2022-08-27T08:07:10;23.80;58.40
39427;DHT22;25938;48.470;1.486;2022-08-27T08:09:36;23.80;58.40
39427;DHT22;25938;48.470;1.486;2022-08-27T08:12:02;23.80;58.40
39427;DHT22;25938;48.470;1.486;2022-08-27T08:14:29;23.80;58.50
39427;DHT22;25938;48.470;1.486;2022-08-27T08:17:01;23.80;58.60
39427;DHT22;25938;48.470;1.486;2022-08-27T08:19:27;23.80;58.50
39427;DHT22;25938;48.470;1.486;2022-08-27T08:21:53;23.80;58.40
39427;DHT22;25938;48.470;1.486;2022-08-27T08:24:19;23.80;58.40
39427;DHT22;25938;48.470;1.486;2022-08-27T08:26:45;23.80;58.40
39427;DHT22;25938;48.470;1.486;2022-08-27T08:29:11;23.90;58.60
39427;DHT22;25938;48.470;1.486;2022-08-27T08:31:39;23.80;58.60
39427;DHT22;25938;48.470;1.486;2022-08-27T08:34:05;23.80;58.70
39427;DHT22;25938;48.470;1.486;2022-08-27T08:36:31;23.90;58.80
39427;DHT22;25938;48.470;1.486;2022-08-27T08:38:57;23.80;58.90
39427;DHT22;25938;48.470;1.486;2022-08-27T08:43:52;23.90;59.20
39427;DHT22;25938;48.470;1.486;2022-08-27T08:48:48;23.90;59.20
39427;DHT22;25938;48.470;1.486;2022-08-27T08:51:42;23.90;59.10
39427;DHT22;25938;48.470;1.486;2022-08-27T08:54:20;23.90;59.30
39427;DHT22;25938;48.470;1.486;2022-08-27T08:57:07;23.90;59.10
39427;DHT22;25938;48.470;1.486;2022-08-27T08:59:38;23.90;59.00
39427;DHT22;25938;48.470;1.486;2022-08-27T09:02:11;23.90;59.00
39427;DHT22;25938;48.470;1.486;2022-08-27T09:04:39;23.90;58.90
39427;DHT22;25938;48.470;1.486;2022-08-27T09:09:56;23.90;59.00
39427;DHT22;25938;48.470;1.486;2022-08-27T09:12:27;23.90;59.00
39427;DHT22;25938;48.470;1.486;2022-08-27T09:15:08;23.90;59.00
39427;DHT22;25938;48.470;1.486;2022-08-27T09:17:35;23.90;59.00
39427;DHT22;25938;48.470;1.486;2022-08-27T09:20:02;23.90;59.00
39427;DHT22;25938;48.470;1.486;2022-08-27T09:22:36;23.90;59.00
39427;DHT22;25938;48.470;1.486;2022-08-27T09:25:13;23.90;59.00
39427;DHT22;25938;48.470;1.486;2022-08-27T09:27:41;23.90;59.00
39427;DHT22;25938;48.470;1.486;2022-08-27T09:30:10;23.90;59.00
39427;DHT22;25938;48.470;1.486;2022-08-27T09:32:37;23.90;59.00
39427;DHT22;25938;48.470;1.486;2022-08-27T09:35:08;23.90;59.00
39427;DHT22;25938;48.470;1.486;2022-08-27T09:37:44;23.90;59.00
39427;DHT22;25938;48.470;1.486;2022-08-27T09:40:30;23.90;59.00
39427;DHT22;25938;48.470;1.486;2022-08-27T09:45:29;23.90;59.00
39427;DHT22;25938;48.470;1.486;2022-08-27T09:48:15;23.90;59.00
39427;DHT22;25938;48.470;1.486;2022-08-27T09:53:23;23.90;59.20
39427;DHT22;25938;48.470;1.486;2022-08-27T09:56:04;23.90;59.20
39427;DHT22;25938;48.470;1.486;2022-08-27T09:58:32;23.90;59.30
39427;DHT22;25938;48.470;1.486;2022-08-27T10:01:05;23.90;59.20
39427;DHT22;25938;48.470;1.486;2022-08-27T10:03:31;24.00;59.00
39427;DHT22;25938;48.470;1.486;2022-08-27T10:05:57;24.10;58.80
39427;DHT22;25938;48.470;1.486;2022-08-27T10:11:35;24.30;58.40
39427;DHT22;25938;48.470;1.486;2022-08-27T10:14:07;24.40;58.20
39427;DHT22;25938;48.470;1.486;2022-08-27T10:16:47;24.40;58.00
39427;DHT22;25938;48.470;1.486;2022-08-27T10:24:40;24.50;57.80
39427;DHT22;25938;48.470;1.486;2022-08-27T10:30:10;24.60;57.80
39427;DHT22;25938;48.470;1.486;2022-08-27T10:35:48;24.60;57.80
39427;DHT22;25938;48.470;1.486;2022-08-27T10:52:28;24.50;57.50
39427;DHT22;25938;48.470;1.486;2022-08-27T10:55:21;24.60;57.90
39427;DHT22;25938;48.470;1.486;2022-08-27T11:00:56;24.60;57.80
39427;DHT22;25938;48.470;1.486;2022-08-27T11:03:29;24.50;57.70
39427;DHT22;25938;48.470;1.486;2022-08-27T11:06:02;24.60;57.90
39427;DHT22;25938;48.470;1.486;2022-08-27T11:08:43;24.50;57.90
39427;DHT22;25938;48.470;1.486;2022-08-27T11:11:41;24.50;57.60
39427;DHT22;25938;48.470;1.486;2022-08-27T11:14:08;24.60;57.60
39427;DHT22;25938;48.470;1.486;2022-08-27T11:16:44;24.50;57.50
39427;DHT22;25938;48.470;1.486;2022-08-27T11:19:18;24.50;57.50
39427;DHT22;25938;48.470;1.486;2022-08-27T11:21:57;24.50;57.70
39427;DHT22;25938;48.470;1.486;2022-08-27T11:24:35;24.50;57.40
39427;DHT22;25938;48.470;1.486;2022-08-27T11:27:06;24.50;56.90
39427;DHT22;25938;48.470;1.486;2022-08-27T11:32:34;24.50;57.20
39427;DHT22;25938;48.470;1.486;2022-08-27T11:35:05;24.50;57.10
39427;DHT22;25938;48.470;1.486;2022-08-27T11:37:44;24.50;57.40
39427;DHT22;25938;48.470;1.486;2022-08-27T11:43:06;24.50;57.80
39427;DHT22;25938;48.470;1.486;2022-08-27T11:45:35;24.50;57.90
39427;DHT22;25938;48.470;1.486;2022-08-27T11:51:03;24.40;57.80
39427;DHT22;25938;48.470;1.486;2022-08-27T11:53:32;24.40;57.90
39427;DHT22;25938;48.470;1.486;2022-08-27T11:56:31;24.50;57.80
39427;DHT22;25938;48.470;1.486;2022-08-27T11:59:20;24.50;57.60
39427;DHT22;25938;48.470;1.486;2022-08-27T12:01:47;24.40;57.80
39427;DHT22;25938;48.470;1.486;2022-08-27T12:04:31;24.50;57.80
39427;DHT22;25938;48.470;1.486;2022-08-27T12:07:07;24.40;57.10
39427;DHT22;25938;48.470;1.486;2022-08-27T12:13:19;24.50;56.90
39427;DHT22;25938;48.470;1.486;2022-08-27T12:18:39;24.40;57.00
39427;DHT22;25938;48.470;1.486;2022-08-27T12:21:18;24.40;56.80
39427;DHT22;25938;48.470;1.486;2022-08-27T12:26:36;24.40;56.50
39427;DHT22;25938;48.470;1.486;2022-08-27T12:31:59;24.40;55.90
39427;DHT22;25938;48.470;1.486;2022-08-27T12:34:28;24.40;55.70
39427;DHT22;25938;48.470;1.486;2022-08-27T12:36:55;24.40;55.60
39427;DHT22;25938;48.470;1.486;2022-08-27T12:39:26;24.40;56.00
39427;DHT22;25938;48.470;1.486;2022-08-27T12:41:53;24.40;55.70
39427;DHT22;25938;48.470;1.486;2022-08-27T12:44:30;24.40;56.30
39427;DHT22;25938;48.470;1.486;2022-08-27T12:47:02;24.40;55.90
39427;DHT22;25938;48.470;1.486;2022-08-27T12:49:48;24.40;56.60
39427;DHT22;25938;48.470;1.486;2022-08-27T12:55:34;24.50;56.30
39427;DHT22;25938;48.470;1.486;2022-08-27T12:58:12;24.40;56.80
39427;DHT22;25938;48.470;1.486;2022-08-27T13:03:37;24.50;57.40
39427;DHT22;25938;48.470;1.486;2022-08-27T13:06:15;24.40;57.20
39427;DHT22;25938;48.470;1.486;2022-08-27T13:08:41;24.40;56.10
39427;DHT22;25938;48.470;1.486;2022-08-27T13:13:42;24.40;57.00
39427;DHT22;25938;48.470;1.486;2022-08-27T13:16:08;24.40;57.00
39427;DHT22;25938;48.470;1.486;2022-08-27T13:18:35;24.40;57.20
39427;DHT22;25938;48.470;1.486;2022-08-27T13:23:57;24.50;57.60
39427;DHT22;25938;48.470;1.486;2022-08-27T13:26:25;24.40;56.60
39427;DHT22;25938;48.470;1.486;2022-08-27T13:28:51;24.40;56.80
39427;DHT22;25938;48.470;1.486;2022-08-27T13:31:19;24.40;57.20
39427;DHT22;25938;48.470;1.486;2022-08-27T13:33:45;24.50;57.50
39427;DHT22;25938;48.470;1.486;2022-08-27T13:36:11;24.40;56.80
39427;DHT22;25938;48.470;1.486;2022-08-27T13:38:40;24.50;56.70
39427;DHT22;25938;48.470;1.486;2022-08-27T13:41:22;24.40;56.90
39427;DHT22;25938;48.470;1.486;2022-08-27T13:43:50;24.40;56.20
39427;DHT22;25938;48.470;1.486;2022-08-27T13:46:28;24.50;55.90
39427;DHT22;25938;48.470;1.486;2022-08-27T13:48:56;24.40;55.50
39427;DHT22;25938;48.470;1.486;2022-08-27T13:51:29;24.40;55.40
39427;DHT22;25938;48.470;1.486;2022-08-27T13:53:58;24.40;54.80
39427;DHT22;25938;48.470;1.486;2022-08-27T14:09:42;24.50;55.00
39427;DHT22;25938;48.470;1.486;2022-08-27T14:12:15;24.50;55.70
39427;DHT22;25938;48.470;1.486;2022-08-27T14:14:42;24.50;56.20
39427;DHT22;25938;48.470;1.486;2022-08-27T14:17:26;24.50;55.50
39427;DHT22;25938;48.470;1.486;2022-08-27T14:19:52;24.50;53.60
39427;DHT22;25938;48.470;1.486;2022-08-27T14:22:23;24.50;53.70
39427;DHT22;25938;48.470;1.486;2022-08-27T14:24:49;24.50;53.90
39427;DHT22;25938;48.470;1.486;2022-08-27T14:27:15;24.50;54.00
39427;DHT22;25938;48.470;1.486;2022-08-27T14:29:41;24.50;54.30
39427;DHT22;25938;48.470;1.486;2022-08-27T14:32:07;24.50;54.00
39427;DHT22;25938;48.470;1.486;2022-08-27T14:34:33;24.50;54.20
39427;DHT22;25938;48.470;1.486;2022-08-27T14:36:59;24.50;54.90
39427;DHT22;25938;48.470;1.486;2022-08-27T14:39:25;24.50;54.90
39427;DHT22;25938;48.470;1.486;2022-08-27T14:41:51;24.50;54.00
39427;DHT22;25938;48.470;1.486;2022-08-27T14:44:16;24.50;54.00
39427;DHT22;25938;48.470;1.486;2022-08-27T14:46:42;24.50;53.80
39427;DHT22;25938;48.470;1.486;2022-08-27T14:49:13;24.50;53.20
39427;DHT22;25938;48.470;1.486;2022-08-27T14:51:42;24.50;52.10
39427;DHT22;25938;48.470;1.486;2022-08-27T14:54:08;24.50;53.50
39427;DHT22;25938;48.470;1.486;2022-08-27T14:56:34;24.50;54.50
39427;DHT22;25938;48.470;1.486;2022-08-27T14:59:00;24.50;55.00
39427;DHT22;25938;48.470;1.486;2022-08-27T15:01:26;24.50;54.40
39427;DHT22;25938;48.470;1.486;2022-08-27T15:03:52;24.50;54.10
39427;DHT22;25938;48.470;1.486;2022-08-27T15:06:20;24.60;53.40
39427;DHT22;25938;48.470;1.486;2022-08-27T15:08:50;24.60;50.20
39427;DHT22;25938;48.470;1.486;2022-08-27T15:11:28;24.60;50.20
39427;DHT22;25938;48.470;1.486;2022-08-27T15:13:55;24.70;50.30
39427;DHT22;25938;48.470;1.486;2022-08-27T15:16:33;24.70;50.10
39427;DHT22;25938;48.470;1.486;2022-08-27T15:19:00;24.60;49.40
39427;DHT22;25938;48.470;1.486;2022-08-27T15:21:27;24.70;50.10
39427;DHT22;25938;48.470;1.486;2022-08-27T15:24:03;24.70;50.50
39427;DHT22;25938;48.470;1.486;2022-08-27T15:26:30;24.60;50.40
39427;DHT22;25938;48.470;1.486;2022-08-27T15:28:56;24.60;50.60
39427;DHT22;25938;48.470;1.486;2022-08-27T15:31:22;24.60;50.90
39427;DHT22;25938;48.470;1.486;2022-08-27T15:33:48;24.60;50.80
39427;DHT22;25938;48.470;1.486;2022-08-27T15:36:14;24.60;50.80
39427;DHT22;25938;48.470;1.486;2022-08-27T15:38:39;24.60;51.10
39427;DHT22;25938;48.470;1.486;2022-08-27T15:41:05;24.60;50.90
39427;DHT22;25938;48.470;1.486;2022-08-27T15:43:31;24.60;51.20
39427;DHT22;25938;48.470;1.486;2022-08-27T15:45:57;24.60;51.30
39427;DHT22;25938;48.470;1.486;2022-08-27T15:48:23;24.60;51.40
39427;DHT22;25938;48.470;1.486;2022-08-27T15:50:49;24.60;51.60
39427;DHT22;25938;48.470;1.486;2022-08-27T15:53:16;24.60;51.50
39427;DHT22;25938;48.470;1.486;2022-08-27T15:55:46;24.60;51.50
39427;DHT22;25938;48.470;1.486;2022-08-27T15:58:11;24.60;51.20
39427;DHT22;25938;48.470;1.486;2022-08-27T16:00:37;24.60;50.90
39427;DHT22;25938;48.470;1.486;2022-08-27T16:03:07;24.60;50.80
39427;DHT22;25938;48.470;1.486;2022-08-27T16:05:35;24.60;51.20
39427;DHT22;25938;48.470;1.486;2022-08-27T16:08:02;24.70;51.00
39427;DHT22;25938;48.470;1.486;2022-08-27T16:10:28;24.60;50.90
39427;DHT22;25938;48.470;1.486;2022-08-27T16:12:54;24.70;51.00
39427;DHT22;25938;48.470;1.486;2022-08-27T16:15:19;24.60;50.90
39427;DHT22;25938;48.470;1.486;2022-08-27T16:17:45;24.60;51.10
39427;DHT22;25938;48.470;1.486;2022-08-27T16:20:14;24.60;51.40
39427;DHT22;25938;48.470;1.486;2022-08-27T16:22:40;24.70;51.60
39427;DHT22;25938;48.470;1.486;2022-08-27T16:25:07;24.60;51.60
39427;DHT22;25938;48.470;1.486;2022-08-27T16:27:33;24.70;51.70
39427;DHT22;25938;48.470;1.486;2022-08-27T16:29:59;24.70;51.90
39427;DHT22;25938;48.470;1.486;2022-08-27T16:32:25;24.70;51.40
39427;DHT22;25938;48.470;1.486;2022-08-27T16:34:54;24.70;51.50
39427;DHT22;25938;48.470;1.486;2022-08-27T16:37:19;24.70;51.20
39427;DHT22;25938;48.470;1.486;2022-08-27T16:39:45;24.70;51.30
39427;DHT22;25938;48.470;1.486;2022-08-27T16:42:11;24.70;51.60
39427;DHT22;25938;48.470;1.486;2022-08-27T16:44:37;24.70;51.30
39427;DHT22;25938;48.470;1.486;2022-08-27T16:47:03;24.70;51.50
39427;DHT22;25938;48.470;1.486;2022-08-27T16:49:29;24.70;51.40
39427;DHT22;25938;48.470;1.486;2022-08-27T16:52:13;24.70;51.30
39427;DHT22;25938;48.470;1.486;2022-08-27T16:54:38;24.70;51.20
39427;DHT22;25938;48.470;1.486;2022-08-27T16:57:05;24.70;50.90
39427;DHT22;25938;48.470;1.486;2022-08-27T16:59:30;24.70;51.10
39427;DHT22;25938;48.470;1.486;2022-08-27T17:01:56;24.70;51.40
39427;DHT22;25938;48.470;1.486;2022-08-27T17:04:22;24.70;51.50
39427;DHT22;25938;48.470;1.486;2022-08-27T17:06:48;24.70;51.20
39427;DHT22;25938;48.470;1.486;2022-08-27T17:09:19;24.80;51.40
39427;DHT22;25938;48.470;1.486;2022-08-27T17:11:49;24.70;51.30
39427;DHT22;25938;48.470;1.486;2022-08-27T17:14:15;24.80;51.00